sensor_id;sensor_type;location;lat;lon;timestamp;temperature;humidity
30628;DHT22;17394;50.890;4.724;2023-12-07T00:01:07;2.30;99.90
30628;DHT22;17394;50.890;4.724;2023-12-07T00:03:33;2.30;99.90
30628;DHT22;17394;50.890;4.724;2023-12-07T00:05:59;2.30;99.90
30628;DHT22;17394;50.890;4.724;2023-12-07T00:08:25;2.30;99.90
30628;DHT22;17394;50.890;4.724;2023-12-07T00:10:51;2.30;99.90
30628;DHT22;17394;50.890;4.724;2023-12-07T00:13:17;2.30;99.90
30628;DHT22;17394;50.890;4.724;2023-12-07T00:15:43;2.40;99.90
30628;DHT22;17394;50.890;4.724;2023-12-07T00:18:10;2.40;99.90
30628;DHT22;17394;50.890;4.724;2023-12-07T00:20:35;2.50;99.90
30628;DHT22;17394;50.890;4.724;2023-12-07T00:23:03;2.50;99.90
30628;DHT22;17394;50.890;4.724;2023-12-07T00:25:30;2.50;99.90
30628;DHT22;17394;50.890;4.724;2023-12-07T00:27:56;2.50;99.90
30628;DHT22;17394;50.890;4.724;2023-12-07T00:30:22;2.50;99.90
30628;DHT22;17394;50.890;4.724;2023-12-07T00:32:48;2.50;99.90
30628;DHT22;17394;50.890;4.724;2023-12-07T00:35:15;2.50;99.90
30628;DHT22;17394;50.890;4.724;2023-12-07T00:37:42;2.50;99.90
30628;DHT22;17394;50.890;4.724;2023-12-07T00:40:08;2.60;99.90
30628;DHT22;17394;50.890;4.724;2023-12-07T00:42:34;2.60;99.90
30628;DHT22;17394;50.890;4.724;2023-12-07T00:45:00;2.60;99.90
30628;DHT22;17394;50.890;4.724;2023-12-07T00:47:26;2.60;99.90
30628;DHT22;17394;50.890;4.724;2023-12-07T00:49:52;2.60;99.90
30628;DHT22;17394;50.890;4.724;2023-12-07T00:52:18;2.50;99.90
30628;DHT22;17394;50.890;4.724;2023-12-07T00:54:44;2.60;99.90
30628;DHT22;17394;50.890;4.724;2023-12-07T00:57:10;2.60;99.90
30628;DHT22;17394;50.890;4.724;2023-12-07T00:59:36;2.50;99.90
30628;DHT22;17394;50.890;4.724;2023-12-07T01:02:03;2.50;99.90
30628;DHT22;17394;50.890;4.724;2023-12-07T01:04:31;2.60;99.90
30628;DHT22;17394;50.890;4.724;2023-12-07T01:06:57;2.60;99.90
30628;DHT22;17394;50.890;4.724;2023-12-07T01:09:24;2.50;99.90
30628;DHT22;17394;50.890;4.724;2023-12-07T01:11:51;2.60;99.90
30628;DHT22;17394;50.890;4.724;2023-12-07T01:14:18;2.60;99.90
30628;DHT22;17394;50.890;4.724;2023-12-07T01:16:44;2.60;99.90
30628;DHT22;17394;50.890;4.724;2023-12-07T01:19:11;2.60;99.90
30628;DHT22;17394;50.890;4.724;2023-12-07T01:21:40;2.60;99.90
30628;DHT22;17394;50.890;4.724;2023-12-07T01:24:07;2.50;99.90
30628;DHT22;17394;50.890;4.724;2023-12-07T01:26:33;2.50;99.90
30628;DHT22;17394;50.890;4.724;2023-12-07T01:28:59;2.60;99.90
30628;DHT22;17394;50.890;4.724;2023-12-07T01:31:25;2.50;99.90
30628;DHT22;17394;50.890;4.724;2023-12-07T01:33:51;2.60;99.90
30628;DHT22;17394;50.890;4.724;2023-12-07T01:36:17;2.50;99.90
30628;DHT22;17394;50.890;4.724;2023-12-07T01:38:43;2.50;99.90
30628;DHT22;17394;50.890;4.724;2023-12-07T01:41:10;2.50;99.90
30628;DHT22;17394;50.890;4.724;2023-12-07T01:43:35;2.50;99.90
30628;DHT22;17394;50.890;4.724;2023-12-07T01:46:02;2.60;99.90
30628;DHT22;17394;50.890;4.724;2023-12-07T01:48:29;2.60;99.90
30628;DHT22;17394;50.890;4.724;2023-12-07T01:50:57;2.60;99.90
30628;DHT22;17394;50.890;4.724;2023-12-07T01:53:24;2.60;99.90
30628;DHT22;17394;50.890;4.724;2023-12-07T01:55:51;2.60;99.90
30628;DHT22;17394;50.890;4.724;2023-12-07T01:58:18;2.60;99.90
30628;DHT22;17394;50.890;4.724;2023-12-07T02:00:46;2.50;99.90
30628;DHT22;17394;50.890;4.724;2023-12-07T02:03:12;2.60;99.90
30628;DHT22;17394;50.890;4.724;2023-12-07T02:05:46;2.50;99.90
30628;DHT22;17394;50.890;4.724;2023-12-07T02:08:12;2.60;99.90
30628;DHT22;17394;50.890;4.724;2023-12-07T02:10:38;2.60;99.90
30628;DHT22;17394;50.890;4.724;2023-12-07T02:13:05;2.60;99.90
30628;DHT22;17394;50.890;4.724;2023-12-07T02:15:31;2.60;99.90
30628;DHT22;17394;50.890;4.724;2023-12-07T02:20:43;2.70;99.90
30628;DHT22;17394;50.890;4.724;2023-12-07T02:23:14;2.70;99.90
30628;DHT22;17394;50.890;4.724;2023-12-07T02:25:48;2.70;99.90
30628;DHT22;17394;50.890;4.724;2023-12-07T02:28:17;2.70;99.90
30628;DHT22;17394;50.890;4.724;2023-12-07T02:30:43;2.70;99.90
30628;DHT22;17394;50.890;4.724;2023-12-07T02:33:10;2.70;99.90
30628;DHT22;17394;50.890;4.724;2023-12-07T02:35:37;2.80;99.90
30628;DHT22;17394;50.890;4.724;2023-12-07T02:38:03;2.80;99.90
30628;DHT22;17394;50.890;4.724;2023-12-07T02:40:31;2.70;99.90
30628;DHT22;17394;50.890;4.724;2023-12-07T02:42:58;2.70;99.90
30628;DHT22;17394;50.890;4.724;2023-12-07T02:45:25;2.80;99.90
30628;DHT22;17394;50.890;4.724;2023-12-07T02:47:52;2.80;99.90
30628;DHT22;17394;50.890;4.724;2023-12-07T02:50:19;2.80;99.90
30628;DHT22;17394;50.890;4.724;2023-12-07T02:52:45;2.80;99.90
30628;DHT22;17394;50.890;4.724;2023-12-07T02:55:12;2.80;99.90
30628;DHT22;17394;50.890;4.724;2023-12-07T02:57:38;2.70;99.90
30628;DHT22;17394;50.890;4.724;2023-12-07T03:00:05;2.70;99.90
30628;DHT22;17394;50.890;4.724;2023-12-07T03:02:39;2.70;99.90
30628;DHT22;17394;50.890;4.724;2023-12-07T03:05:06;2.70;99.90
30628;DHT22;17394;50.890;4.724;2023-12-07T03:07:33;2.70;99.90
30628;DHT22;17394;50.890;4.724;2023-12-07T03:09:59;2.70;99.90
30628;DHT22;17394;50.890;4.724;2023-12-07T03:12:26;2.70;99.90
30628;DHT22;17394;50.890;4.724;2023-12-07T03:14:52;2.70;99.90
30628;DHT22;17394;50.890;4.724;2023-12-07T03:17:19;2.70;99.90
30628;DHT22;17394;50.890;4.724;2023-12-07T03:19:44;2.80;99.90
30628;DHT22;17394;50.890;4.724;2023-12-07T03:22:12;2.70;99.90
30628;DHT22;17394;50.890;4.724;2023-12-07T03:24:40;2.80;99.90
30628;DHT22;17394;50.890;4.724;2023-12-07T03:27:06;2.80;99.90
30628;DHT22;17394;50.890;4.724;2023-12-07T03:29:32;2.80;99.90
30628;DHT22;17394;50.890;4.724;2023-12-07T03:31:58;2.80;99.90
30628;DHT22;17394;50.890;4.724;2023-12-07T03:34:25;2.80;99.90
30628;DHT22;17394;50.890;4.724;2023-12-07T03:36:51;2.80;99.90
30628;DHT22;17394;50.890;4.724;2023-12-07T03:39:17;2.80;99.90
30628;DHT22;17394;50.890;4.724;2023-12-07T03:41:48;2.80;99.90
30628;DHT22;17394;50.890;4.724;2023-12-07T03:44:14;2.80;99.90
30628;DHT22;17394;50.890;4.724;2023-12-07T03:46:41;2.80;99.90
30628;DHT22;17394;50.890;4.724;2023-12-07T03:49:07;2.90;99.90
30628;DHT22;17394;50.890;4.724;2023-12-07T03:51:33;2.90;99.90
30628;DHT22;17394;50.890;4.724;2023-12-07T03:54:02;2.90;99.90
30628;DHT22;17394;50.890;4.724;2023-12-07T03:56:29;2.90;99.90
30628;DHT22;17394;50.890;4.724;2023-12-07T03:58:56;2.90;99.90
30628;DHT22;17394;50.890;4.724;2023-12-07T04:01:23;2.90;99.90
30628;DHT22;17394;50.890;4.724;2023-12-07T04:03:51;2.90;99.90
30628;DHT22;17394;50.890;4.724;2023-12-07T04:06:17;2.90;99.90
30628;DHT22;17394;50.890;4.724;2023-12-07T04:08:44;2.90;99.90
30628;DHT22;17394;50.890;4.724;2023-12-07T04:11:10;2.90;99.90
30628;DHT22;17394;50.890;4.724;2023-12-07T04:13:36;2.90;99.90
30628;DHT22;17394;50.890;4.724;2023-12-07T04:16:02;2.90;99.90
30628;DHT22;17394;50.890;4.724;2023-12-07T04:18:31;2.90;99.90
30628;DHT22;17394;50.890;4.724;2023-12-07T04:20:57;2.90;99.90
30628;DHT22;17394;50.890;4.724;2023-12-07T04:23:23;2.90;99.90
30628;DHT22;17394;50.890;4.724;2023-12-07T04:25:49;2.90;99.90
30628;DHT22;17394;50.890;4.724;2023-12-07T04:28:15;2.90;99.90
30628;DHT22;17394;50.890;4.724;2023-12-07T04:30:43;2.90;99.90
30628;DHT22;17394;50.890;4.724;2023-12-07T04:33:09;2.90;99.90
30628;DHT22;17394;50.890;4.724;2023-12-07T04:35:36;2.90;99.90
30628;DHT22;17394;50.890;4.724;2023-12-07T04:38:03;2.90;99.90
30628;DHT22;17394;50.890;4.724;2023-12-07T04:40:29;2.90;99.90
30628;DHT22;17394;50.890;4.724;2023-12-07T04:42:55;2.90;99.90
30628;DHT22;17394;50.890;4.724;2023-12-07T04:45:21;2.90;99.90
30628;DHT22;17394;50.890;4.724;2023-12-07T04:47:47;2.80;99.90
30628;DHT22;17394;50.890;4.724;2023-12-07T04:50:13;2.90;99.90
30628;DHT22;17394;50.890;4.724;2023-12-07T04:52:39;2.80;99.90
30628;DHT22;17394;50.890;4.724;2023-12-07T04:55:07;2.80;99.90
30628;DHT22;17394;50.890;4.724;2023-12-07T04:57:35;2.80;99.90
30628;DHT22;17394;50.890;4.724;2023-12-07T05:00:02;2.80;99.90
30628;DHT22;17394;50.890;4.724;2023-12-07T05:02:32;2.80;99.90
30628;DHT22;17394;50.890;4.724;2023-12-07T05:04:58;2.80;99.90
30628;DHT22;17394;50.890;4.724;2023-12-07T05:07:24;2.80;99.90
30628;DHT22;17394;50.890;4.724;2023-12-07T05:09:51;2.80;99.90
30628;DHT22;17394;50.890;4.724;2023-12-07T05:12:17;2.80;99.90
30628;DHT22;17394;50.890;4.724;2023-12-07T05:14:43;2.80;99.90
30628;DHT22;17394;50.890;4.724;2023-12-07T05:17:10;2.80;99.90
30628;DHT22;17394;50.890;4.724;2023-12-07T05:19:36;2.80;99.90
30628;DHT22;17394;50.890;4.724;2023-12-07T05:22:02;2.80;99.90
30628;DHT22;17394;50.890;4.724;2023-12-07T05:24:28;2.80;99.90
30628;DHT22;17394;50.890;4.724;2023-12-07T05:26:55;2.70;99.90
30628;DHT22;17394;50.890;4.724;2023-12-07T05:29:21;2.70;99.90
30628;DHT22;17394;50.890;4.724;2023-12-07T05:31:50;2.80;99.90
30628;DHT22;17394;50.890;4.724;2023-12-07T05:34:17;2.80;99.90
30628;DHT22;17394;50.890;4.724;2023-12-07T05:36:44;2.70;99.90
30628;DHT22;17394;50.890;4.724;2023-12-07T05:39:10;2.70;99.90
30628;DHT22;17394;50.890;4.724;2023-12-07T05:41:36;2.80;99.90
30628;DHT22;17394;50.890;4.724;2023-12-07T05:44:03;2.70;99.90
30628;DHT22;17394;50.890;4.724;2023-12-07T05:46:30;2.70;99.90
30628;DHT22;17394;50.890;4.724;2023-12-07T05:48:56;2.80;99.90
30628;DHT22;17394;50.890;4.724;2023-12-07T05:51:23;2.80;99.90
30628;DHT22;17394;50.890;4.724;2023-12-07T05:53:49;2.80;99.90
30628;DHT22;17394;50.890;4.724;2023-12-07T05:56:19;2.80;99.90
30628;DHT22;17394;50.890;4.724;2023-12-07T05:58:48;2.80;99.90
30628;DHT22;17394;50.890;4.724;2023-12-07T06:01:18;2.70;99.90
30628;DHT22;17394;50.890;4.724;2023-12-07T06:03:44;2.80;99.90
30628;DHT22;17394;50.890;4.724;2023-12-07T06:06:11;2.70;99.90
30628;DHT22;17394;50.890;4.724;2023-12-07T06:08:40;2.70;99.90
30628;DHT22;17394;50.890;4.724;2023-12-07T06:11:07;2.70;99.90
30628;DHT22;17394;50.890;4.724;2023-12-07T06:13:33;2.70;99.90
30628;DHT22;17394;50.890;4.724;2023-12-07T06:16:00;2.70;99.90
30628;DHT22;17394;50.890;4.724;2023-12-07T06:18:27;2.80;99.90
30628;DHT22;17394;50.890;4.724;2023-12-07T06:20:54;2.80;99.90
30628;DHT22;17394;50.890;4.724;2023-12-07T06:23:20;2.80;99.90
30628;DHT22;17394;50.890;4.724;2023-12-07T06:25:46;2.80;99.90
30628;DHT22;17394;50.890;4.724;2023-12-07T06:28:13;2.70;99.90
30628;DHT22;17394;50.890;4.724;2023-12-07T06:30:39;2.70;99.90
30628;DHT22;17394;50.890;4.724;2023-12-07T06:33:05;2.80;99.90
30628;DHT22;17394;50.890;4.724;2023-12-07T06:35:31;2.70;99.90
30628;DHT22;17394;50.890;4.724;2023-12-07T06:37:57;2.70;99.90
30628;DHT22;17394;50.890;4.724;2023-12-07T06:40:23;2.70;99.90
30628;DHT22;17394;50.890;4.724;2023-12-07T06:42:49;2.60;99.90
30628;DHT22;17394;50.890;4.724;2023-12-07T06:45:16;2.60;99.90
30628;DHT22;17394;50.890;4.724;2023-12-07T06:47:42;2.60;99.90
30628;DHT22;17394;50.890;4.724;2023-12-07T06:50:08;2.50;99.90
30628;DHT22;17394;50.890;4.724;2023-12-07T06:52:39;2.50;99.90
30628;DHT22;17394;50.890;4.724;2023-12-07T06:55:05;2.50;99.90
30628;DHT22;17394;50.890;4.724;2023-12-07T06:57:32;2.40;99.90
30628;DHT22;17394;50.890;4.724;2023-12-07T06:59:58;2.40;99.90
30628;DHT22;17394;50.890;4.724;2023-12-07T07:02:25;2.40;99.90
30628;DHT22;17394;50.890;4.724;2023-12-07T07:04:51;2.30;99.90
30628;DHT22;17394;50.890;4.724;2023-12-07T07:07:17;2.30;99.90
30628;DHT22;17394;50.890;4.724;2023-12-07T07:09:43;2.30;99.90
30628;DHT22;17394;50.890;4.724;2023-12-07T07:12:09;2.20;99.90
30628;DHT22;17394;50.890;4.724;2023-12-07T07:14:36;2.20;99.90
30628;DHT22;17394;50.890;4.724;2023-12-07T07:17:02;2.10;99.90
30628;DHT22;17394;50.890;4.724;2023-12-07T07:19:28;2.10;99.90
30628;DHT22;17394;50.890;4.724;2023-12-07T07:21:54;2.10;99.90
30628;DHT22;17394;50.890;4.724;2023-12-07T07:24:20;2.10;99.90
30628;DHT22;17394;50.890;4.724;2023-12-07T07:26:46;2.00;99.90
30628;DHT22;17394;50.890;4.724;2023-12-07T07:29:12;2.00;99.90
30628;DHT22;17394;50.890;4.724;2023-12-07T07:31:38;2.00;99.90
30628;DHT22;17394;50.890;4.724;2023-12-07T07:34:05;1.90;99.90
30628;DHT22;17394;50.890;4.724;2023-12-07T07:36:31;1.90;99.90
30628;DHT22;17394;50.890;4.724;2023-12-07T07:38:58;1.90;99.90
30628;DHT22;17394;50.890;4.724;2023-12-07T07:41:24;1.90;99.90
30628;DHT22;17394;50.890;4.724;2023-12-07T07:43:50;1.90;99.90
30628;DHT22;17394;50.890;4.724;2023-12-07T07:46:16;1.80;99.90
30628;DHT22;17394;50.890;4.724;2023-12-07T07:48:42;1.80;99.90
30628;DHT22;17394;50.890;4.724;2023-12-07T07:51:08;1.80;99.90
30628;DHT22;17394;50.890;4.724;2023-12-07T07:53:35;1.70;99.90
30628;DHT22;17394;50.890;4.724;2023-12-07T07:56:01;1.70;99.90
30628;DHT22;17394;50.890;4.724;2023-12-07T07:58:27;1.70;99.90
30628;DHT22;17394;50.890;4.724;2023-12-07T08:00:53;1.60;99.90
30628;DHT22;17394;50.890;4.724;2023-12-07T08:03:19;1.60;99.90
30628;DHT22;17394;50.890;4.724;2023-12-07T08:05:45;1.60;99.90
30628;DHT22;17394;50.890;4.724;2023-12-07T08:08:11;1.60;99.90
30628;DHT22;17394;50.890;4.724;2023-12-07T08:10:37;1.60;99.90
30628;DHT22;17394;50.890;4.724;2023-12-07T08:13:04;1.50;99.90
30628;DHT22;17394;50.890;4.724;2023-12-07T08:15:33;1.60;99.90
30628;DHT22;17394;50.890;4.724;2023-12-07T08:18:01;1.60;99.90
30628;DHT22;17394;50.890;4.724;2023-12-07T08:20:27;1.60;99.90
30628;DHT22;17394;50.890;4.724;2023-12-07T08:22:53;1.60;99.90
30628;DHT22;17394;50.890;4.724;2023-12-07T08:25:21;1.60;99.90
30628;DHT22;17394;50.890;4.724;2023-12-07T08:27:48;1.70;99.90
30628;DHT22;17394;50.890;4.724;2023-12-07T08:30:14;1.70;99.90
30628;DHT22;17394;50.890;4.724;2023-12-07T08:32:41;1.90;99.90
30628;DHT22;17394;50.890;4.724;2023-12-07T08:35:07;2.00;99.90
30628;DHT22;17394;50.890;4.724;2023-12-07T08:37:36;2.10;99.90
30628;DHT22;17394;50.890;4.724;2023-12-07T08:40:02;2.30;99.90
30628;DHT22;17394;50.890;4.724;2023-12-07T08:42:28;2.50;99.90
30628;DHT22;17394;50.890;4.724;2023-12-07T08:44:57;2.50;99.90
30628;DHT22;17394;50.890;4.724;2023-12-07T08:47:23;2.60;99.90
30628;DHT22;17394;50.890;4.724;2023-12-07T08:49:49;2.70;99.90
30628;DHT22;17394;50.890;4.724;2023-12-07T08:52:18;2.70;99.90
30628;DHT22;17394;50.890;4.724;2023-12-07T08:54:43;2.70;99.90
30628;DHT22;17394;50.890;4.724;2023-12-07T08:57:10;2.80;99.90
30628;DHT22;17394;50.890;4.724;2023-12-07T08:59:37;2.80;99.90
30628;DHT22;17394;50.890;4.724;2023-12-07T09:02:03;2.90;99.90
30628;DHT22;17394;50.890;4.724;2023-12-07T09:04:29;3.00;99.90
30628;DHT22;17394;50.890;4.724;2023-12-07T09:06:55;3.00;99.90
30628;DHT22;17394;50.890;4.724;2023-12-07T09:09:22;3.00;99.90
30628;DHT22;17394;50.890;4.724;2023-12-07T09:11:49;3.10;99.90
30628;DHT22;17394;50.890;4.724;2023-12-07T09:14:15;3.00;99.90
30628;DHT22;17394;50.890;4.724;2023-12-07T09:16:44;3.00;99.90
30628;DHT22;17394;50.890;4.724;2023-12-07T09:19:14;3.00;99.90
30628;DHT22;17394;50.890;4.724;2023-12-07T09:21:40;3.00;99.90
30628;DHT22;17394;50.890;4.724;2023-12-07T09:24:07;3.00;99.90
30628;DHT22;17394;50.890;4.724;2023-12-07T09:26:33;3.00;99.90
30628;DHT22;17394;50.890;4.724;2023-12-07T09:28:59;3.10;99.90
30628;DHT22;17394;50.890;4.724;2023-12-07T09:31:27;3.10;99.90
30628;DHT22;17394;50.890;4.724;2023-12-07T09:33:57;3.10;99.90
30628;DHT22;17394;50.890;4.724;2023-12-07T09:36:23;3.20;99.90
30628;DHT22;17394;50.890;4.724;2023-12-07T09:38:49;3.30;99.90
30628;DHT22;17394;50.890;4.724;2023-12-07T09:41:16;3.30;99.90
30628;DHT22;17394;50.890;4.724;2023-12-07T09:43:42;3.40;99.90
30628;DHT22;17394;50.890;4.724;2023-12-07T09:46:08;3.50;99.90
30628;DHT22;17394;50.890;4.724;2023-12-07T09:48:37;3.50;99.90
30628;DHT22;17394;50.890;4.724;2023-12-07T09:51:04;3.60;99.90
30628;DHT22;17394;50.890;4.724;2023-12-07T09:53:32;3.70;99.90
30628;DHT22;17394;50.890;4.724;2023-12-07T09:55:59;3.70;99.90
30628;DHT22;17394;50.890;4.724;2023-12-07T09:58:25;3.80;99.90
30628;DHT22;17394;50.890;4.724;2023-12-07T10:00:52;3.80;99.90
30628;DHT22;17394;50.890;4.724;2023-12-07T10:03:22;3.80;99.90
30628;DHT22;17394;50.890;4.724;2023-12-07T10:05:58;3.90;99.90
30628;DHT22;17394;50.890;4.724;2023-12-07T10:08:30;3.90;99.90
30628;DHT22;17394;50.890;4.724;2023-12-07T10:11:08;4.00;99.90
30628;DHT22;17394;50.890;4.724;2023-12-07T10:13:36;4.00;99.90
30628;DHT22;17394;50.890;4.724;2023-12-07T10:16:15;4.10;99.90
30628;DHT22;17394;50.890;4.724;2023-12-07T10:18:42;4.20;99.90
30628;DHT22;17394;50.890;4.724;2023-12-07T10:21:08;4.20;99.90
30628;DHT22;17394;50.890;4.724;2023-12-07T10:23:38;4.30;99.90
30628;DHT22;17394;50.890;4.724;2023-12-07T10:26:06;4.40;99.90
30628;DHT22;17394;50.890;4.724;2023-12-07T10:28:36;4.40;99.90
30628;DHT22;17394;50.890;4.724;2023-12-07T10:31:03;4.50;99.90
30628;DHT22;17394;50.890;4.724;2023-12-07T10:33:29;4.50;99.90
30628;DHT22;17394;50.890;4.724;2023-12-07T10:35:57;4.50;99.90
30628;DHT22;17394;50.890;4.724;2023-12-07T10:38:24;4.50;99.90
30628;DHT22;17394;50.890;4.724;2023-12-07T10:41:03;4.50;99.90
30628;DHT22;17394;50.890;4.724;2023-12-07T10:43:30;4.50;99.90
30628;DHT22;17394;50.890;4.724;2023-12-07T10:45:58;4.60;99.90
30628;DHT22;17394;50.890;4.724;2023-12-07T10:48:25;4.70;99.90
30628;DHT22;17394;50.890;4.724;2023-12-07T10:50:53;4.70;99.90
30628;DHT22;17394;50.890;4.724;2023-12-07T10:53:27;4.80;99.90
30628;DHT22;17394;50.890;4.724;2023-12-07T10:55:56;4.80;99.90
30628;DHT22;17394;50.890;4.724;2023-12-07T10:58:25;4.90;99.90
30628;DHT22;17394;50.890;4.724;2023-12-07T11:00:55;4.90;99.90
30628;DHT22;17394;50.890;4.724;2023-12-07T11:03:23;5.00;99.90
30628;DHT22;17394;50.890;4.724;2023-12-07T11:05:51;5.00;99.90
30628;DHT22;17394;50.890;4.724;2023-12-07T11:13:32;5.00;99.90
30628;DHT22;17394;50.890;4.724;2023-12-07T11:16:00;5.00;99.90
30628;DHT22;17394;50.890;4.724;2023-12-07T11:18:27;5.00;99.90
30628;DHT22;17394;50.890;4.724;2023-12-07T11:20:55;5.00;99.90
30628;DHT22;17394;50.890;4.724;2023-12-07T11:23:21;5.00;99.90
30628;DHT22;17394;50.890;4.724;2023-12-07T11:25:49;5.00;99.90
30628;DHT22;17394;50.890;4.724;2023-12-07T11:28:17;5.00;99.90
30628;DHT22;17394;50.890;4.724;2023-12-07T11:30:45;5.00;99.90
30628;DHT22;17394;50.890;4.724;2023-12-07T11:33:12;5.10;99.90
30628;DHT22;17394;50.890;4.724;2023-12-07T11:38:26;5.10;99.90
30628;DHT22;17394;50.890;4.724;2023-12-07T11:40:54;5.20;99.90
30628;DHT22;17394;50.890;4.724;2023-12-07T11:45:59;5.30;99.90
30628;DHT22;17394;50.890;4.724;2023-12-07T11:48:27;5.30;99.90
30628;DHT22;17394;50.890;4.724;2023-12-07T11:51:07;5.30;99.90
30628;DHT22;17394;50.890;4.724;2023-12-07T11:53:39;5.40;99.90
30628;DHT22;17394;50.890;4.724;2023-12-07T11:56:07;5.50;99.90
30628;DHT22;17394;50.890;4.724;2023-12-07T11:58:34;5.60;99.90
30628;DHT22;17394;50.890;4.724;2023-12-07T12:01:01;5.50;99.90
30628;DHT22;17394;50.890;4.724;2023-12-07T12:03:29;5.50;99.90
30628;DHT22;17394;50.890;4.724;2023-12-07T12:05:55;5.50;99.90
30628;DHT22;17394;50.890;4.724;2023-12-07T12:08:23;5.50;99.90
30628;DHT22;17394;50.890;4.724;2023-12-07T12:10:50;5.50;99.90
30628;DHT22;17394;50.890;4.724;2023-12-07T12:13:30;5.30;99.90
30628;DHT22;17394;50.890;4.724;2023-12-07T12:15:57;5.40;99.90
30628;DHT22;17394;50.890;4.724;2023-12-07T12:18:23;5.40;99.90
30628;DHT22;17394;50.890;4.724;2023-12-07T12:20:52;5.40;99.90
30628;DHT22;17394;50.890;4.724;2023-12-07T12:23:18;5.40;99.90
30628;DHT22;17394;50.890;4.724;2023-12-07T12:25:46;5.40;99.90
30628;DHT22;17394;50.890;4.724;2023-12-07T12:28:15;5.40;99.90
30628;DHT22;17394;50.890;4.724;2023-12-07T12:30:41;5.40;99.90
30628;DHT22;17394;50.890;4.724;2023-12-07T12:33:08;5.40;99.90
30628;DHT22;17394;50.890;4.724;2023-12-07T12:35:34;5.40;99.90
30628;DHT22;17394;50.890;4.724;2023-12-07T12:38:01;5.40;99.90
30628;DHT22;17394;50.890;4.724;2023-12-07T12:40:27;5.40;99.90
30628;DHT22;17394;50.890;4.724;2023-12-07T12:42:55;5.40;99.90
30628;DHT22;17394;50.890;4.724;2023-12-07T12:45:21;5.40;99.90
30628;DHT22;17394;50.890;4.724;2023-12-07T12:47:48;5.40;99.90
30628;DHT22;17394;50.890;4.724;2023-12-07T12:50:37;5.40;99.90
30628;DHT22;17394;50.890;4.724;2023-12-07T12:53:08;5.40;99.90
30628;DHT22;17394;50.890;4.724;2023-12-07T12:55:37;5.40;99.90
30628;DHT22;17394;50.890;4.724;2023-12-07T12:58:04;5.40;99.90
30628;DHT22;17394;50.890;4.724;2023-12-07T13:00:30;5.40;99.90
30628;DHT22;17394;50.890;4.724;2023-12-07T13:02:58;5.40;99.90
30628;DHT22;17394;50.890;4.724;2023-12-07T13:05:26;5.50;99.90
30628;DHT22;17394;50.890;4.724;2023-12-07T13:07:52;5.40;99.90
30628;DHT22;17394;50.890;4.724;2023-12-07T13:10:18;5.50;99.90
30628;DHT22;17394;50.890;4.724;2023-12-07T13:12:44;5.50;99.90
30628;DHT22;17394;50.890;4.724;2023-12-07T13:15:11;5.50;99.90
30628;DHT22;17394;50.890;4.724;2023-12-07T13:17:42;5.50;99.90
30628;DHT22;17394;50.890;4.724;2023-12-07T13:20:09;5.50;99.90
30628;DHT22;17394;50.890;4.724;2023-12-07T13:22:41;5.50;99.90
30628;DHT22;17394;50.890;4.724;2023-12-07T13:25:11;5.40;99.90
30628;DHT22;17394;50.890;4.724;2023-12-07T13:27:38;5.40;99.90
30628;DHT22;17394;50.890;4.724;2023-12-07T13:30:04;5.40;99.90
30628;DHT22;17394;50.890;4.724;2023-12-07T13:32:36;5.40;99.90
30628;DHT22;17394;50.890;4.724;2023-12-07T13:35:05;5.40;99.90
30628;DHT22;17394;50.890;4.724;2023-12-07T13:37:31;5.40;99.90
30628;DHT22;17394;50.890;4.724;2023-12-07T13:39:58;5.40;99.90
30628;DHT22;17394;50.890;4.724;2023-12-07T13:42:26;5.40;99.90
30628;DHT22;17394;50.890;4.724;2023-12-07T13:44:56;5.40;99.90
30628;DHT22;17394;50.890;4.724;2023-12-07T13:47:24;5.40;99.90
30628;DHT22;17394;50.890;4.724;2023-12-07T13:50:05;5.40;99.90
30628;DHT22;17394;50.890;4.724;2023-12-07T13:52:54;5.40;99.90
30628;DHT22;17394;50.890;4.724;2023-12-07T13:55:47;5.40;99.90
30628;DHT22;17394;50.890;4.724;2023-12-07T13:58:15;5.40;99.90
30628;DHT22;17394;50.890;4.724;2023-12-07T14:00:41;5.40;99.90
30628;DHT22;17394;50.890;4.724;2023-12-07T14:03:12;5.40;99.90
30628;DHT22;17394;50.890;4.724;2023-12-07T14:05:38;5.40;99.90
30628;DHT22;17394;50.890;4.724;2023-12-07T14:08:05;5.40;99.90
30628;DHT22;17394;50.890;4.724;2023-12-07T14:10:31;5.40;99.90
30628;DHT22;17394;50.890;4.724;2023-12-07T14:12:58;5.40;99.90
30628;DHT22;17394;50.890;4.724;2023-12-07T14:15:24;5.40;99.90
30628;DHT22;17394;50.890;4.724;2023-12-07T14:17:50;5.30;99.90
30628;DHT22;17394;50.890;4.724;2023-12-07T14:20:16;5.30;99.90
30628;DHT22;17394;50.890;4.724;2023-12-07T14:22:42;5.20;99.90
30628;DHT22;17394;50.890;4.724;2023-12-07T14:25:09;5.20;99.90
30628;DHT22;17394;50.890;4.724;2023-12-07T14:27:35;5.20;99.90
30628;DHT22;17394;50.890;4.724;2023-12-07T14:30:01;5.10;99.90
30628;DHT22;17394;50.890;4.724;2023-12-07T14:32:28;5.10;99.90
30628;DHT22;17394;50.890;4.724;2023-12-07T14:34:55;5.00;99.90
30628;DHT22;17394;50.890;4.724;2023-12-07T14:37:21;5.00;99.90
30628;DHT22;17394;50.890;4.724;2023-12-07T14:39:48;5.00;99.90
30628;DHT22;17394;50.890;4.724;2023-12-07T14:42:14;4.90;99.90
30628;DHT22;17394;50.890;4.724;2023-12-07T14:44:40;4.90;99.90
30628;DHT22;17394;50.890;4.724;2023-12-07T14:47:06;4.90;99.90
30628;DHT22;17394;50.890;4.724;2023-12-07T14:49:34;4.80;99.90
30628;DHT22;17394;50.890;4.724;2023-12-07T14:52:00;4.80;99.90
30628;DHT22;17394;50.890;4.724;2023-12-07T14:54:27;4.80;99.90
30628;DHT22;17394;50.890;4.724;2023-12-07T14:56:53;4.80;99.90
30628;DHT22;17394;50.890;4.724;2023-12-07T14:59:19;4.70;99.90
30628;DHT22;17394;50.890;4.724;2023-12-07T15:01:46;4.70;99.90
30628;DHT22;17394;50.890;4.724;2023-12-07T15:04:12;4.60;99.90
30628;DHT22;17394;50.890;4.724;2023-12-07T15:06:38;4.50;99.90
30628;DHT22;17394;50.890;4.724;2023-12-07T15:09:04;4.50;99.90
30628;DHT22;17394;50.890;4.724;2023-12-07T15:11:34;4.50;99.90
30628;DHT22;17394;50.890;4.724;2023-12-07T15:14:01;4.50;99.90
30628;DHT22;17394;50.890;4.724;2023-12-07T15:16:28;4.40;99.90
30628;DHT22;17394;50.890;4.724;2023-12-07T15:18:54;4.40;99.90
30628;DHT22;17394;50.890;4.724;2023-12-07T15:21:20;4.30;99.90
30628;DHT22;17394;50.890;4.724;2023-12-07T15:23:46;4.30;99.90
30628;DHT22;17394;50.890;4.724;2023-12-07T15:26:12;4.30;99.90
30628;DHT22;17394;50.890;4.724;2023-12-07T15:28:39;4.20;99.90
30628;DHT22;17394;50.890;4.724;2023-12-07T15:31:06;4.10;99.90
30628;DHT22;17394;50.890;4.724;2023-12-07T15:33:33;4.10;99.90
30628;DHT22;17394;50.890;4.724;2023-12-07T15:36:00;4.10;99.90
30628;DHT22;17394;50.890;4.724;2023-12-07T15:38:26;4.10;99.90
30628;DHT22;17394;50.890;4.724;2023-12-07T15:40:52;4.10;99.90
30628;DHT22;17394;50.890;4.724;2023-12-07T15:43:23;4.10;99.90
30628;DHT22;17394;50.890;4.724;2023-12-07T15:45:49;4.00;99.90
30628;DHT22;17394;50.890;4.724;2023-12-07T15:48:16;4.00;99.90
30628;DHT22;17394;50.890;4.724;2023-12-07T15:50:42;4.00;99.90
30628;DHT22;17394;50.890;4.724;2023-12-07T15:53:08;4.00;99.90
30628;DHT22;17394;50.890;4.724;2023-12-07T15:55:34;4.00;99.90
30628;DHT22;17394;50.890;4.724;2023-12-07T15:58:00;4.00;99.90